sensor_id;sensor_type;location;lat;lon;timestamp;pressure;altitude;pressure_sealevel;temperature;humidity
30516;BME280;17297;54.022;10.760;2022-11-15T00:01:40;101190.03;;;9.95;71.26
30516;BME280;17297;54.022;10.760;2022-11-15T00:04:24;101183.00;;;9.94;71.50
30516;BME280;17297;54.022;10.760;2022-11-15T00:07:08;101173.91;;;9.95;71.38
30516;BME280;17297;54.022;10.760;2022-11-15T00:09:52;101167.50;;;9.96;71.38
30516;BME280;17297;54.022;10.760;2022-11-15T00:12:36;101164.81;;;9.96;71.15
30516;BME280;17297;54.022;10.760;2022-11-15T00:15:20;101169.38;;;9.95;71.21
30516;BME280;17297;54.022;10.760;2022-11-15T00:18:04;101175.78;;;9.94;71.19
30516;BME280;17297;54.022;10.760;2022-11-15T00:20:49;101173.09;;;9.94;71.27
30516;BME280;17297;54.022;10.760;2022-11-15T00:23:33;101168.34;;;9.97;71.15
30516;BME280;17297;54.022;10.760;2022-11-15T00:26:17;101177.06;;;9.99;70.94
30516;BME280;17297;54.022;10.760;2022-11-15T00:29:01;101167.16;;;9.99;70.88
30516;BME280;17297;54.022;10.760;2022-11-15T00:31:45;101166.16;;;10.00;70.92
30516;BME280;17297;54.022;10.760;2022-11-15T00:34:29;101153.72;;;9.99;70.85
30516;BME280;17297;54.022;10.760;2022-11-15T00:37:13;101158.09;;;10.00;70.76
30516;BME280;17297;54.022;10.760;2022-11-15T00:39:57;101149.53;;;9.97;70.62
30516;BME280;17297;54.022;10.760;2022-11-15T00:42:41;101153.25;;;9.95;70.73
30516;BME280;17297;54.022;10.760;2022-11-15T00:45:26;101143.69;;;9.93;70.72
30516;BME280;17297;54.022;10.760;2022-11-15T00:48:10;101146.56;;;9.91;70.77
30516;BME280;17297;54.022;10.760;2022-11-15T00:50:54;101137.00;;;9.89;70.46
30516;BME280;17297;54.022;10.760;2022-11-15T00:53:38;101152.47;;;9.87;70.62
30516;BME280;17297;54.022;10.760;2022-11-15T00:56:22;101144.03;;;9.90;70.66
30516;BME280;17297;54.022;10.760;2022-11-15T00:59:06;101128.94;;;9.89;70.56
30516;BME280;17297;54.022;10.760;2022-11-15T01:01:49;101139.69;;;9.89;70.52
30516;BME280;17297;54.022;10.760;2022-11-15T01:04:33;101133.97;;;9.92;70.56
30516;BME280;17297;54.022;10.760;2022-11-15T01:07:17;101134.78;;;9.92;70.43
30516;BME280;17297;54.022;10.760;2022-11-15T01:10:01;101131.28;;;9.92;70.41
30516;BME280;17297;54.022;10.760;2022-11-15T01:12:46;101119.50;;;9.93;70.42
30516;BME280;17297;54.022;10.760;2022-11-15T01:15:30;101134.63;;;9.94;70.32
30516;BME280;17297;54.022;10.760;2022-11-15T01:18:14;101131.75;;;9.95;70.51
30516;BME280;17297;54.022;10.760;2022-11-15T01:20:58;101134.44;;;9.95;70.46
30516;BME280;17297;54.022;10.760;2022-11-15T01:23:42;101123.69;;;9.95;70.44
30516;BME280;17297;54.022;10.760;2022-11-15T01:26:26;101124.50;;;9.96;70.13
30516;BME280;17297;54.022;10.760;2022-11-15T01:29:10;101128.91;;;9.97;70.34
30516;BME280;17297;54.022;10.760;2022-11-15T01:31:54;101131.59;;;9.97;70.25
30516;BME280;17297;54.022;10.760;2022-11-15T01:34:38;101130.72;;;9.97;70.04
30516;BME280;17297;54.022;10.760;2022-11-15T01:37:22;101125.34;;;9.97;70.14
30516;BME280;17297;54.022;10.760;2022-11-15T01:40:06;101127.19;;;9.96;70.17
30516;BME280;17297;54.022;10.760;2022-11-15T01:42:50;101122.50;;;9.98;70.19
30516;BME280;17297;54.022;10.760;2022-11-15T01:45:34;101117.13;;;9.98;70.12
30516;BME280;17297;54.022;10.760;2022-11-15T01:48:18;101109.06;;;9.98;69.96
30516;BME280;17297;54.022;10.760;2022-11-15T01:51:07;101101.81;;;9.99;70.08
30516;BME280;17297;54.022;10.760;2022-11-15T01:53:55;101092.09;;;9.98;69.88
30516;BME280;17297;54.022;10.760;2022-11-15T01:56:46;101085.91;;;9.97;69.87
30516;BME280;17297;54.022;10.760;2022-11-15T01:59:32;101093.97;;;9.97;69.95
30516;BME280;17297;54.022;10.760;2022-11-15T02:02:17;101092.94;;;9.98;69.90
30516;BME280;17297;54.022;10.760;2022-11-15T02:05:01;101093.97;;;9.97;69.94
30516;BME280;17297;54.022;10.760;2022-11-15T02:07:45;101095.97;;;9.95;69.94
30516;BME280;17297;54.022;10.760;2022-11-15T02:10:30;101089.78;;;9.94;69.71
30516;BME280;17297;54.022;10.760;2022-11-15T02:13:15;101086.41;;;9.92;69.86
30516;BME280;17297;54.022;10.760;2022-11-15T02:16:19;101090.28;;;9.90;69.94
30516;BME280;17297;54.022;10.760;2022-11-15T02:19:21;101087.59;;;9.90;69.63
30516;BME280;17297;54.022;10.760;2022-11-15T02:26:03;101081.09;;;9.84;69.85
30516;BME280;17297;54.022;10.760;2022-11-15T02:29:01;101076.75;;;9.83;69.74
30516;BME280;17297;54.022;10.760;2022-11-15T02:32:20;101074.25;;;9.82;69.81
30516;BME280;17297;54.022;10.760;2022-11-15T02:35:43;101069.88;;;9.81;69.94
30516;BME280;17297;54.022;10.760;2022-11-15T02:38:44;101069.88;;;9.81;69.74
30516;BME280;17297;54.022;10.760;2022-11-15T02:44:43;101072.22;;;9.84;69.74
30516;BME280;17297;54.022;10.760;2022-11-15T02:47:31;101076.94;;;9.82;69.88
30516;BME280;17297;54.022;10.760;2022-11-15T02:50:20;101080.63;;;9.81;69.59
30516;BME280;17297;54.022;10.760;2022-11-15T02:53:07;101072.56;;;9.81;69.57
30516;BME280;17297;54.022;10.760;2022-11-15T02:55:53;101074.25;;;9.82;69.65
30516;BME280;17297;54.022;10.760;2022-11-15T03:01:48;101077.31;;;9.79;69.82
30516;BME280;17297;54.022;10.760;2022-11-15T03:04:47;101075.59;;;9.78;69.74
30516;BME280;17297;54.022;10.760;2022-11-15T03:07:39;101084.69;;;9.77;69.59
30516;BME280;17297;54.022;10.760;2022-11-15T03:14:10;101077.81;;;9.74;69.55
30516;BME280;17297;54.022;10.760;2022-11-15T03:17:27;101076.16;;;9.73;69.55
30516;BME280;17297;54.022;10.760;2022-11-15T03:20:14;101073.00;;;9.69;69.63
30516;BME280;17297;54.022;10.760;2022-11-15T03:23:04;101066.97;;;9.67;69.39
30516;BME280;17297;54.022;10.760;2022-11-15T03:25:50;101074.00;;;9.68;69.53
30516;BME280;17297;54.022;10.760;2022-11-15T03:28:36;101066.44;;;9.72;69.40
30516;BME280;17297;54.022;10.760;2022-11-15T03:31:23;101067.16;;;9.66;69.36
30516;BME280;17297;54.022;10.760;2022-11-15T03:34:34;101074.34;;;9.65;69.49
30516;BME280;17297;54.022;10.760;2022-11-15T03:37:21;101081.59;;;9.65;69.56
30516;BME280;17297;54.022;10.760;2022-11-15T03:40:06;101077.25;;;9.64;69.34
30516;BME280;17297;54.022;10.760;2022-11-15T03:43:02;101073.88;;;9.62;69.58
30516;BME280;17297;54.022;10.760;2022-11-15T03:45:54;101072.22;;;9.61;69.57
30516;BME280;17297;54.022;10.760;2022-11-15T03:48:49;101082.13;;;9.60;69.58
30516;BME280;17297;54.022;10.760;2022-11-15T03:51:34;101082.13;;;9.60;69.45
30516;BME280;17297;54.022;10.760;2022-11-15T03:54:18;101076.91;;;9.59;69.28
30516;BME280;17297;54.022;10.760;2022-11-15T03:57:02;101074.25;;;9.59;69.29
30516;BME280;17297;54.022;10.760;2022-11-15T03:59:46;101070.72;;;9.58;69.18
30516;BME280;17297;54.022;10.760;2022-11-15T04:02:30;101074.25;;;9.59;69.15
30516;BME280;17297;54.022;10.760;2022-11-15T04:05:14;101071.56;;;9.59;69.10
30516;BME280;17297;54.022;10.760;2022-11-15T04:07:58;101071.75;;;9.57;69.24
30516;BME280;17297;54.022;10.760;2022-11-15T04:10:42;101071.91;;;9.56;69.06
30516;BME280;17297;54.022;10.760;2022-11-15T04:13:26;101073.75;;;9.55;69.18
30516;BME280;17297;54.022;10.760;2022-11-15T04:16:10;101067.72;;;9.53;69.04
30516;BME280;17297;54.022;10.760;2022-11-15T04:18:54;101059.03;;;9.51;69.14
30516;BME280;17297;54.022;10.760;2022-11-15T04:21:57;101062.91;;;9.48;69.11
30516;BME280;17297;54.022;10.760;2022-11-15T04:24:59;101069.31;;;9.47;69.14
30516;BME280;17297;54.022;10.760;2022-11-15T04:27:43;101060.41;;;9.47;68.88
30516;BME280;17297;54.022;10.760;2022-11-15T04:30:27;101068.63;;;9.45;68.98
30516;BME280;17297;54.022;10.760;2022-11-15T04:33:11;101066.13;;;9.44;69.00
30516;BME280;17297;54.022;10.760;2022-11-15T04:35:55;101060.09;;;9.42;68.79
30516;BME280;17297;54.022;10.760;2022-11-15T04:38:58;101061.94;;;9.41;68.83
30516;BME280;17297;54.022;10.760;2022-11-15T04:41:42;101055.91;;;9.39;69.00
30516;BME280;17297;54.022;10.760;2022-11-15T04:44:26;101058.59;;;9.39;68.96
30516;BME280;17297;54.022;10.760;2022-11-15T04:47:10;101067.47;;;9.40;68.98
30516;BME280;17297;54.022;10.760;2022-11-15T04:49:54;101063.28;;;9.37;68.73
30516;BME280;17297;54.022;10.760;2022-11-15T04:52:40;101070.53;;;9.37;68.70
30516;BME280;17297;54.022;10.760;2022-11-15T04:55:25;101063.66;;;9.34;68.56
30516;BME280;17297;54.022;10.760;2022-11-15T04:58:09;101063.00;;;9.32;68.82
30516;BME280;17297;54.022;10.760;2022-11-15T05:00:53;101074.75;;;9.31;68.59
30516;BME280;17297;54.022;10.760;2022-11-15T05:03:37;101066.06;;;9.29;68.41
30516;BME280;17297;54.022;10.760;2022-11-15T05:06:40;101061.03;;;9.26;68.60
30516;BME280;17297;54.022;10.760;2022-11-15T05:09:24;101049.63;;;9.24;68.46
30516;BME280;17297;54.022;10.760;2022-11-15T05:12:08;101061.19;;;9.24;68.54
30516;BME280;17297;54.022;10.760;2022-11-15T05:14:52;101066.56;;;9.24;68.46
30516;BME280;17297;54.022;10.760;2022-11-15T05:17:36;101077.13;;;9.26;68.76
30516;BME280;17297;54.022;10.760;2022-11-15T05:20:20;101068.91;;;9.28;68.66
30516;BME280;17297;54.022;10.760;2022-11-15T05:23:04;101079.47;;;9.29;68.69
30516;BME280;17297;54.022;10.760;2022-11-15T05:25:48;101056.81;;;9.32;68.55
30516;BME280;17297;54.022;10.760;2022-11-15T05:28:33;101065.50;;;9.34;68.45
30516;BME280;17297;54.022;10.760;2022-11-15T05:31:17;101058.94;;;9.36;68.49
30516;BME280;17297;54.022;10.760;2022-11-15T05:34:03;101060.44;;;9.39;68.69
30516;BME280;17297;54.022;10.760;2022-11-15T05:36:48;101063.81;;;9.41;68.41
30516;BME280;17297;54.022;10.760;2022-11-15T05:39:32;101065.28;;;9.43;68.59
30516;BME280;17297;54.022;10.760;2022-11-15T05:42:16;101056.88;;;9.46;68.48
30516;BME280;17297;54.022;10.760;2022-11-15T05:45:03;101073.66;;;9.48;68.54
30516;BME280;17297;54.022;10.760;2022-11-15T05:47:52;101067.09;;;9.51;68.77
30516;BME280;17297;54.022;10.760;2022-11-15T05:50:38;101074.44;;;9.57;68.58
30516;BME280;17297;54.022;10.760;2022-11-15T05:53:24;101075.63;;;9.55;68.61
30516;BME280;17297;54.022;10.760;2022-11-15T05:56:09;101070.91;;;9.57;68.61
30516;BME280;17297;54.022;10.760;2022-11-15T05:58:55;101067.88;;;9.60;68.75
30516;BME280;17297;54.022;10.760;2022-11-15T06:01:40;101067.69;;;9.61;68.63
30516;BME280;17297;54.022;10.760;2022-11-15T06:04:24;101061.28;;;9.62;68.80
30516;BME280;17297;54.022;10.760;2022-11-15T06:07:08;101063.63;;;9.65;68.78
30516;BME280;17297;54.022;10.760;2022-11-15T06:09:52;101064.47;;;9.66;68.75
30516;BME280;17297;54.022;10.760;2022-11-15T06:12:36;101069.84;;;9.66;68.75
30516;BME280;17297;54.022;10.760;2022-11-15T06:15:20;101066.97;;;9.67;68.92
30516;BME280;17297;54.022;10.760;2022-11-15T06:18:04;101076.88;;;9.67;68.94
30516;BME280;17297;54.022;10.760;2022-11-15T06:20:48;101068.81;;;9.67;69.16
30516;BME280;17297;54.022;10.760;2022-11-15T06:23:33;101063.44;;;9.67;69.18
30516;BME280;17297;54.022;10.760;2022-11-15T06:26:17;101065.09;;;9.68;68.95
30516;BME280;17297;54.022;10.760;2022-11-15T06:29:03;101071.50;;;9.67;69.30
30516;BME280;17297;54.022;10.760;2022-11-15T06:31:47;101065.09;;;9.68;69.17
30516;BME280;17297;54.022;10.760;2022-11-15T06:34:31;101066.81;;;9.69;69.30
30516;BME280;17297;54.022;10.760;2022-11-15T06:37:15;101071.97;;;9.70;69.13
30516;BME280;17297;54.022;10.760;2022-11-15T06:39:59;101068.28;;;9.71;69.23
30516;BME280;17297;54.022;10.760;2022-11-15T06:42:43;101071.81;;;9.72;69.27
30516;BME280;17297;54.022;10.760;2022-11-15T06:45:27;101067.28;;;9.73;69.46
30516;BME280;17297;54.022;10.760;2022-11-15T06:48:11;101070.94;;;9.71;69.21
30516;BME280;17297;54.022;10.760;2022-11-15T06:50:57;101079.88;;;9.72;69.55
30516;BME280;17297;54.022;10.760;2022-11-15T06:53:41;101077.19;;;9.72;69.26
30516;BME280;17297;54.022;10.760;2022-11-15T06:56:25;101080.03;;;9.70;69.38
30516;BME280;17297;54.022;10.760;2022-11-15T06:59:09;101088.75;;;9.73;69.66
30516;BME280;17297;54.022;10.760;2022-11-15T07:01:53;101086.72;;;9.75;69.72
30516;BME280;17297;54.022;10.760;2022-11-15T07:04:37;101101.66;;;9.77;69.64
30516;BME280;17297;54.022;10.760;2022-11-15T07:07:22;101106.50;;;9.82;69.81
30516;BME280;17297;54.022;10.760;2022-11-15T07:10:06;101110.50;;;9.86;69.69
30516;BME280;17297;54.022;10.760;2022-11-15T07:12:51;101103.09;;;9.88;69.56
30516;BME280;17297;54.022;10.760;2022-11-15T07:15:35;101120.69;;;9.90;69.60
30516;BME280;17297;54.022;10.760;2022-11-15T07:18:20;101110.59;;;9.92;69.60
30516;BME280;17297;54.022;10.760;2022-11-15T07:21:06;101116.66;;;9.94;69.69
30516;BME280;17297;54.022;10.760;2022-11-15T07:23:51;101122.66;;;9.97;69.76
30516;BME280;17297;54.022;10.760;2022-11-15T07:26:34;101122.50;;;9.98;69.64
30516;BME280;17297;54.022;10.760;2022-11-15T07:29:18;101117.13;;;9.98;69.77
30516;BME280;17297;54.022;10.760;2022-11-15T07:32:02;101118.97;;;9.98;69.60
30516;BME280;17297;54.022;10.760;2022-11-15T07:34:46;101121.47;;;9.99;69.84
30516;BME280;17297;54.022;10.760;2022-11-15T07:37:30;101114.22;;;10.00;69.82
30516;BME280;17297;54.022;10.760;2022-11-15T07:40:14;101116.75;;;10.01;69.81
30516;BME280;17297;54.022;10.760;2022-11-15T07:43:03;101123.78;;;10.02;69.90
30516;BME280;17297;54.022;10.760;2022-11-15T07:45:47;101121.78;;;10.04;70.00
30516;BME280;17297;54.022;10.760;2022-11-15T07:48:31;101120.94;;;10.04;69.88
30516;BME280;17297;54.022;10.760;2022-11-15T07:51:16;101120.59;;;10.07;69.82
30516;BME280;17297;54.022;10.760;2022-11-15T07:54:00;101122.09;;;10.09;69.87
30516;BME280;17297;54.022;10.760;2022-11-15T07:56:44;101128.09;;;10.11;69.89
30516;BME280;17297;54.022;10.760;2022-11-15T07:59:29;101122.53;;;10.13;69.79
30516;BME280;17297;54.022;10.760;2022-11-15T08:02:12;101121.31;;;10.15;69.80
30516;BME280;17297;54.022;10.760;2022-11-15T08:04:56;101119.31;;;10.17;70.07
30516;BME280;17297;54.022;10.760;2022-11-15T08:07:40;101119.13;;;10.19;69.80
30516;BME280;17297;54.022;10.760;2022-11-15T08:10:25;101119.59;;;10.23;69.87
30516;BME280;17297;54.022;10.760;2022-11-15T08:13:11;101116.56;;;10.26;69.95
30516;BME280;17297;54.022;10.760;2022-11-15T08:15:59;101114.38;;;10.29;69.94
30516;BME280;17297;54.022;10.760;2022-11-15T08:18:44;101114.84;;;10.33;70.04
30516;BME280;17297;54.022;10.760;2022-11-15T08:21:28;101106.22;;;10.37;70.14
30516;BME280;17297;54.022;10.760;2022-11-15T08:24:12;101108.34;;;10.42;69.97
30516;BME280;17297;54.022;10.760;2022-11-15T08:26:57;101111.34;;;10.47;69.93
30516;BME280;17297;54.022;10.760;2022-11-15T08:29:44;101102.03;;;10.50;70.14
30516;BME280;17297;54.022;10.760;2022-11-15T08:32:28;101107.72;;;10.55;70.12
30516;BME280;17297;54.022;10.760;2022-11-15T08:35:11;101105.50;;;10.58;69.99
30516;BME280;17297;54.022;10.760;2022-11-15T08:37:55;101110.34;;;10.63;70.07
30516;BME280;17297;54.022;10.760;2022-11-15T08:40:39;101111.63;;;10.67;70.17
30516;BME280;17297;54.022;10.760;2022-11-15T08:43:23;101115.63;;;10.71;70.09
30516;BME280;17297;54.022;10.760;2022-11-15T08:46:11;101108.84;;;10.75;69.98
30516;BME280;17297;54.022;10.760;2022-11-15T08:48:56;101105.81;;;10.78;70.06
30516;BME280;17297;54.022;10.760;2022-11-15T08:51:40;101101.88;;;10.81;69.94
30516;BME280;17297;54.022;10.760;2022-11-15T08:54:24;101105.22;;;10.83;69.99
30516;BME280;17297;54.022;10.760;2022-11-15T08:57:08;101098.81;;;10.84;69.99
30516;BME280;17297;54.022;10.760;2022-11-15T08:59:53;101099.47;;;10.86;70.10
30516;BME280;17297;54.022;10.760;2022-11-15T09:02:40;101098.28;;;10.89;70.31
30516;BME280;17297;54.022;10.760;2022-11-15T09:05:24;101098.94;;;10.91;70.06
30516;BME280;17297;54.022;10.760;2022-11-15T09:08:08;101102.09;;;10.94;70.23
30516;BME280;17297;54.022;10.760;2022-11-15T09:10:51;101089.25;;;10.96;70.21
30516;BME280;17297;54.022;10.760;2022-11-15T09:13:36;101088.03;;;10.99;70.15
30516;BME280;17297;54.022;10.760;2022-11-15T09:16:23;101094.91;;;11.01;69.99
30516;BME280;17297;54.022;10.760;2022-11-15T09:19:07;101096.41;;;11.04;70.20
30516;BME280;17297;54.022;10.760;2022-11-15T09:21:51;101096.03;;;11.07;70.05
30516;BME280;17297;54.022;10.760;2022-11-15T09:24:35;101097.53;;;11.09;70.26
30516;BME280;17297;54.022;10.760;2022-11-15T09:27:19;101097.78;;;11.15;70.13
30516;BME280;17297;54.022;10.760;2022-11-15T09:30:04;101096.56;;;11.17;70.23
30516;BME280;17297;54.022;10.760;2022-11-15T09:32:48;101098.88;;;11.20;70.13
30516;BME280;17297;54.022;10.760;2022-11-15T09:35:32;101094.78;;;11.24;70.16
30516;BME280;17297;54.022;10.760;2022-11-15T09:38:16;101090.88;;;11.27;69.98
30516;BME280;17297;54.022;10.760;2022-11-15T09:44:18;101090.94;;;11.33;70.24
30516;BME280;17297;54.022;10.760;2022-11-15T09:50:40;101094.75;;;11.39;70.10
30516;BME280;17297;54.022;10.760;2022-11-15T09:53:30;101093.38;;;11.43;70.26
30516;BME280;17297;54.022;10.760;2022-11-15T09:56:03;101096.69;;;11.45;70.20
30516;BME280;17297;54.022;10.760;2022-11-15T10:01:07;101089.50;;;11.52;70.27
30516;BME280;17297;54.022;10.760;2022-11-15T10:03:35;101086.44;;;11.55;70.01
30516;BME280;17297;54.022;10.760;2022-11-15T10:06:04;101078.16;;;11.57;70.03
30516;BME280;17297;54.022;10.760;2022-11-15T10:09:00;101075.91;;;11.61;70.16
30516;BME280;17297;54.022;10.760;2022-11-15T10:11:29;101081.97;;;11.63;69.94
30516;BME280;17297;54.022;10.760;2022-11-15T10:14:05;101081.56;;;11.66;70.30
30516;BME280;17297;54.022;10.760;2022-11-15T10:16:48;101080.16;;;11.70;70.05
30516;BME280;17297;54.022;10.760;2022-11-15T10:19:26;101073.56;;;11.72;70.25
30516;BME280;17297;54.022;10.760;2022-11-15T10:24:37;101070.28;;;11.77;70.23
30516;BME280;17297;54.022;10.760;2022-11-15T10:27:14;101066.34;;;11.79;70.01
30516;BME280;17297;54.022;10.760;2022-11-15T10:29:45;101063.50;;;11.81;70.04
30516;BME280;17297;54.022;10.760;2022-11-15T10:32:12;101060.41;;;11.84;70.27
30516;BME280;17297;54.022;10.760;2022-11-15T10:34:39;101068.31;;;11.86;70.18
30516;BME280;17297;54.022;10.760;2022-11-15T10:37:04;101058.81;;;11.90;70.25
30516;BME280;17297;54.022;10.760;2022-11-15T10:39:30;101066.06;;;11.89;69.99
30516;BME280;17297;54.022;10.760;2022-11-15T10:41:55;101056.97;;;11.90;70.23
30516;BME280;17297;54.022;10.760;2022-11-15T10:44:26;101062.97;;;11.92;70.25
30516;BME280;17297;54.022;10.760;2022-11-15T10:49:25;101050.81;;;11.96;70.15
30516;BME280;17297;54.022;10.760;2022-11-15T10:54:41;101050.41;;;11.99;70.10
30516;BME280;17297;54.022;10.760;2022-11-15T10:57:12;101045.84;;;12.00;70.01
30516;BME280;17297;54.022;10.760;2022-11-15T10:59:42;101045.47;;;12.03;70.13
30516;BME280;17297;54.022;10.760;2022-11-15T11:02:28;101046.06;;;12.05;70.22
30516;BME280;17297;54.022;10.760;2022-11-15T11:04:54;101043.19;;;12.07;69.98
30516;BME280;17297;54.022;10.760;2022-11-15T11:07:23;101052.31;;;12.06;69.98
30516;BME280;17297;54.022;10.760;2022-11-15T11:09:57;101053.59;;;12.10;70.16
30516;BME280;17297;54.022;10.760;2022-11-15T11:12:34;101047.81;;;12.13;70.30
30516;BME280;17297;54.022;10.760;2022-11-15T11:15:01;101040.16;;;12.16;69.97
30516;BME280;17297;54.022;10.760;2022-11-15T11:20:21;101031.06;;;12.24;70.23
30516;BME280;17297;54.022;10.760;2022-11-15T11:28:54;101024.31;;;12.35;70.24
30516;BME280;17297;54.022;10.760;2022-11-15T11:31:28;101019.78;;;12.42;69.98
30516;BME280;17297;54.022;10.760;2022-11-15T11:37:19;101026.22;;;12.41;70.11
30516;BME280;17297;54.022;10.760;2022-11-15T11:40:00;101020.81;;;12.41;70.08
30516;BME280;17297;54.022;10.760;2022-11-15T11:42:41;101022.69;;;12.40;70.06
30516;BME280;17297;54.022;10.760;2022-11-15T11:47:51;101019.16;;;12.40;70.09
30516;BME280;17297;54.022;10.760;2022-11-15T11:50:26;101012.72;;;12.41;70.15
30516;BME280;17297;54.022;10.760;2022-11-15T11:55:39;101013.16;;;12.44;70.05
30516;BME280;17297;54.022;10.760;2022-11-15T12:00:49;101016.28;;;12.48;69.95
30516;BME280;17297;54.022;10.760;2022-11-15T12:03:38;101009.03;;;12.48;70.11
30516;BME280;17297;54.022;10.760;2022-11-15T12:09:01;101003.63;;;12.48;70.20
30516;BME280;17297;54.022;10.760;2022-11-15T12:11:35;100998.03;;;12.50;70.02
30516;BME280;17297;54.022;10.760;2022-11-15T12:14:05;100990.56;;;12.52;70.06
30516;BME280;17297;54.022;10.760;2022-11-15T12:16:37;100996.81;;;12.53;70.07
30516;BME280;17297;54.022;10.760;2022-11-15T12:19:04;101003.66;;;12.55;70.20
30516;BME280;17297;54.022;10.760;2022-11-15T12:21:43;101001.81;;;12.56;70.26
30516;BME280;17297;54.022;10.760;2022-11-15T12:24:41;100994.34;;;12.58;70.11
30516;BME280;17297;54.022;10.760;2022-11-15T12:27:33;100987.06;;;12.58;70.36
30516;BME280;17297;54.022;10.760;2022-11-15T12:30:08;100983.97;;;12.61;70.17
30516;BME280;17297;54.022;10.760;2022-11-15T12:32:40;100978.56;;;12.61;70.25
30516;BME280;17297;54.022;10.760;2022-11-15T12:35:25;100976.72;;;12.62;70.30
30516;BME280;17297;54.022;10.760;2022-11-15T12:37:53;100981.91;;;12.63;70.46
30516;BME280;17297;54.022;10.760;2022-11-15T12:40:28;100980.88;;;12.64;70.46
30516;BME280;17297;54.022;10.760;2022-11-15T12:45:33;100977.97;;;12.66;70.49
30516;BME280;17297;54.022;10.760;2022-11-15T12:56:18;100972.59;;;12.73;70.61
30516;BME280;17297;54.022;10.760;2022-11-15T13:06:49;100957.47;;;12.78;70.78
30516;BME280;17297;54.022;10.760;2022-11-15T13:12:11;100961.44;;;12.82;70.67
30516;BME280;17297;54.022;10.760;2022-11-15T13:15:00;100944.19;;;12.83;70.91
30516;BME280;17297;54.022;10.760;2022-11-15T13:17:36;100942.13;;;12.85;70.87
30516;BME280;17297;54.022;10.760;2022-11-15T13:28:32;100945.66;;;12.92;70.82
30516;BME280;17297;54.022;10.760;2022-11-15T13:31:01;100934.69;;;12.94;70.97
30516;BME280;17297;54.022;10.760;2022-11-15T13:33:37;100936.34;;;12.95;71.14
30516;BME280;17297;54.022;10.760;2022-11-15T13:36:14;100932.41;;;12.98;71.18
30516;BME280;17297;54.022;10.760;2022-11-15T13:38:42;100930.94;;;13.02;71.11
30516;BME280;17297;54.022;10.760;2022-11-15T13:41:30;100926.41;;;13.02;71.25
30516;BME280;17297;54.022;10.760;2022-11-15T13:43:57;100922.44;;;13.05;71.19
30516;BME280;17297;54.022;10.760;2022-11-15T13:46:25;100919.31;;;13.08;71.41
30516;BME280;17297;54.022;10.760;2022-11-15T13:49:03;100914.56;;;13.10;71.45
30516;BME280;17297;54.022;10.760;2022-11-15T13:51:39;100904.38;;;13.12;71.49
30516;BME280;17297;54.022;10.760;2022-11-15T13:56:41;100909.16;;;13.16;71.72
30516;BME280;17297;54.022;10.760;2022-11-15T13:59:28;100911.66;;;13.18;71.67
30516;BME280;17297;54.022;10.760;2022-11-15T14:01:55;100916.03;;;13.19;71.62
30516;BME280;17297;54.022;10.760;2022-11-15T14:04:22;100909.78;;;13.18;71.76
30516;BME280;17297;54.022;10.760;2022-11-15T14:06:52;100913.31;;;13.19;71.85
30516;BME280;17297;54.022;10.760;2022-11-15T14:09:34;100911.25;;;13.21;72.01
30516;BME280;17297;54.022;10.760;2022-11-15T14:12:01;100912.91;;;13.22;71.99
30516;BME280;17297;54.022;10.760;2022-11-15T14:14:28;100912.91;;;13.22;72.11
30516;BME280;17297;54.022;10.760;2022-11-15T14:16:56;100911.88;;;13.23;72.06
30516;BME280;17297;54.022;10.760;2022-11-15T14:22:26;100908.78;;;13.26;72.08
30516;BME280;17297;54.022;10.760;2022-11-15T14:25:28;100915.88;;;13.27;72.21
30516;BME280;17297;54.022;10.760;2022-11-15T14:30:34;100910.25;;;13.29;72.04
30516;BME280;17297;54.022;10.760;2022-11-15T14:33:00;100905.66;;;13.29;72.07
30516;BME280;17297;54.022;10.760;2022-11-15T14:35:25;100911.06;;;13.29;71.99
30516;BME280;17297;54.022;10.760;2022-11-15T14:37:51;100910.06;;;13.30;72.05
30516;BME280;17297;54.022;10.760;2022-11-15T14:40:18;100917.31;;;13.30;72.15
30516;BME280;17297;54.022;10.760;2022-11-15T14:42:45;100918.16;;;13.30;72.02
30516;BME280;17297;54.022;10.760;2022-11-15T14:45:13;100908.38;;;13.29;71.92
30516;BME280;17297;54.022;10.760;2022-11-15T14:47:39;100912.75;;;13.30;72.00
30516;BME280;17297;54.022;10.760;2022-11-15T14:50:04;100914.41;;;13.31;72.08
30516;BME280;17297;54.022;10.760;2022-11-15T14:52:31;100910.06;;;13.30;72.12
30516;BME280;17297;54.022;10.760;2022-11-15T14:55:00;100902.78;;;13.31;72.13
30516;BME280;17297;54.022;10.760;2022-11-15T14:57:27;100895.69;;;13.30;72.24
30516;BME280;17297;54.022;10.760;2022-11-15T14:59:52;100892.97;;;13.30;71.98
30516;BME280;17297;54.022;10.760;2022-11-15T15:02:23;100881.56;;;13.28;71.97
30516;BME280;17297;54.022;10.760;2022-11-15T15:04:49;100868.91;;;13.28;72.09
30516;BME280;17297;54.022;10.760;2022-11-15T15:07:15;100878.03;;;13.27;72.20
30516;BME280;17297;54.022;10.760;2022-11-15T15:09:41;100861.84;;;13.27;72.21
30516;BME280;17297;54.022;10.760;2022-11-15T15:12:23;100870.78;;;13.28;72.27
30516;BME280;17297;54.022;10.760;2022-11-15T15:14:49;100868.91;;;13.28;72.45
30516;BME280;17297;54.022;10.760;2022-11-15T15:17:16;100874.31;;;13.28;72.50
30516;BME280;17297;54.022;10.760;2022-11-15T15:19:41;100877.00;;;13.28;72.43
30516;BME280;17297;54.022;10.760;2022-11-15T15:22:18;100864.53;;;13.27;72.66
30516;BME280;17297;54.022;10.760;2022-11-15T15:24:45;100867.25;;;13.27;72.48
30516;BME280;17297;54.022;10.760;2022-11-15T15:27:11;100864.53;;;13.27;72.59
30516;BME280;17297;54.022;10.760;2022-11-15T15:29:37;100868.25;;;13.26;72.56
30516;BME280;17297;54.022;10.760;2022-11-15T15:32:03;100868.47;;;13.25;72.70